createdAt,value
2019-05-25T00:00:09.795Z,20.02
2019-05-25T00:02:38.434Z,19.55
2019-05-25T00:05:07.611Z,20.43
2019-05-25T00:07:37.518Z,19.80
2019-05-25T00:10:06.633Z,19.15
2019-05-25T00:12:35.728Z,18.83
2019-05-25T00:15:06.750Z,19.66
2019-05-25T00:17:36.048Z,20.05
2019-05-25T00:20:06.915Z,20.35
2019-05-25T00:22:37.919Z,19.42
2019-05-25T00:25:07.154Z,20.43
2019-05-25T00:27:37.640Z,20.12
2019-05-25T00:30:08.998Z,21.48
2019-05-25T00:32:38.191Z,20.23
2019-05-25T00:35:07.223Z,20.15
2019-05-25T00:37:38.035Z,20.75
2019-05-25T00:40:06.904Z,19.67
2019-05-25T00:42:36.919Z,19.27
2019-05-25T00:45:06.829Z,20.18
2019-05-25T00:47:38.283Z,18.82
2019-05-25T00:50:07.066Z,19.07
2019-05-25T00:52:36.367Z,19.62
2019-05-25T00:55:06.911Z,19.20
2019-05-25T00:57:37.421Z,20.00
2019-05-25T01:00:07.438Z,20.68
2019-05-25T01:02:39.425Z,19.57
2019-05-25T01:05:08.144Z,19.80
2019-05-25T01:07:38.413Z,20.23
2019-05-25T01:10:07.508Z,20.67
2019-05-25T01:12:36.386Z,20.48
2019-05-25T01:15:07.249Z,20.34
2019-05-25T01:17:38.874Z,19.47
2019-05-25T01:20:08.593Z,19.48
2019-05-25T01:22:38.611Z,20.27
2019-05-25T01:25:07.720Z,19.20
2019-05-25T01:27:37.913Z,19.77
2019-05-25T01:30:08.346Z,17.20
2019-05-25T01:32:38.680Z,19.60
2019-05-25T01:35:07.447Z,19.73
2019-05-25T01:37:38.383Z,20.65
2019-05-25T01:40:06.969Z,19.73
2019-05-25T01:42:36.266Z,21.23
2019-05-25T01:45:07.021Z,21.02
2019-05-25T01:47:35.658Z,21.07
2019-05-25T01:50:06.112Z,19.90
2019-05-25T01:52:36.044Z,19.10
2019-05-25T01:55:06.040Z,19.42
2019-05-25T01:57:35.465Z,21.33
2019-05-25T02:00:05.892Z,22.70
2019-05-25T02:02:35.766Z,20.83
2019-05-25T02:05:07.252Z,20.93
2019-05-25T02:07:36.533Z,20.90
2019-05-25T02:10:09.324Z,21.12
2019-05-25T02:12:37.895Z,20.32
2019-05-25T02:15:07.927Z,21.93
2019-05-25T02:17:38.536Z,20.50
2019-05-25T02:20:07.740Z,21.12
2019-05-25T02:22:37.954Z,22.00
2019-05-25T02:25:17.645Z,19.37
2019-05-25T02:27:38.520Z,20.77
2019-05-25T02:30:08.411Z,20.05
2019-05-25T02:32:38.122Z,20.90
2019-05-25T02:35:07.596Z,21.75
2019-05-25T02:37:38.046Z,20.90
2019-05-25T02:40:07.250Z,21.67
2019-05-25T02:42:36.546Z,21.45
2019-05-25T02:45:06.898Z,22.26
2019-05-25T02:47:38.626Z,23.27
2019-05-25T02:50:07.412Z,22.05
2019-05-25T02:52:37.526Z,22.20
2019-05-25T02:55:08.362Z,23.96
2019-05-25T02:57:37.055Z,22.73
2019-05-25T03:00:07.285Z,22.50
2019-05-25T03:02:36.480Z,23.35
2019-05-25T03:05:08.122Z,24.75
2019-05-25T03:07:37.014Z,25.40
2019-05-25T03:10:06.830Z,24.14
2019-05-25T03:12:36.137Z,21.17
2019-05-25T03:15:07.899Z,24.34
2019-05-25T03:17:36.869Z,22.23
2019-05-25T03:20:06.797Z,23.63
2019-05-25T03:22:36.102Z,23.20
2019-05-25T03:25:07.741Z,22.24
2019-05-25T03:27:36.828Z,21.97
2019-05-25T03:30:06.851Z,22.48
2019-05-25T03:32:37.581Z,22.00
2019-05-25T03:35:07.608Z,22.82
2019-05-25T03:37:36.280Z,24.67
2019-05-25T03:40:07.105Z,21.80
2019-05-25T03:42:38.379Z,23.40
2019-05-25T03:45:07.495Z,24.80
2019-05-25T03:47:37.979Z,25.07
2019-05-25T03:50:06.791Z,24.37
2019-05-25T03:52:36.185Z,25.43
2019-05-25T03:55:06.899Z,24.64
2019-05-25T03:57:38.573Z,24.67
2019-05-25T04:00:07.412Z,24.65
2019-05-25T04:02:37.587Z,23.47
2019-05-25T04:05:07.368Z,24.02
2019-05-25T04:07:36.172Z,24.15
2019-05-25T04:10:06.997Z,24.56
2019-05-25T04:12:37.746Z,24.15
2019-05-25T04:15:07.045Z,25.10
2019-05-25T04:17:37.678Z,24.23
2019-05-25T04:20:07.181Z,22.50
2019-05-25T04:22:36.153Z,23.90
2019-05-25T04:25:06.679Z,23.15
2019-05-25T04:27:38.547Z,22.70
2019-05-25T04:30:07.122Z,22.67
2019-05-25T04:32:39.307Z,22.37
2019-05-25T04:35:08.275Z,22.42
2019-05-25T04:37:38.898Z,21.80
2019-05-25T04:40:08.102Z,21.42
2019-05-25T04:42:36.887Z,21.52
2019-05-25T04:45:07.110Z,21.40
2019-05-25T04:47:36.638Z,20.55
2019-05-25T04:50:06.937Z,20.63
2019-05-25T04:52:35.851Z,20.10
2019-05-25T04:55:06.254Z,20.60
2019-05-25T04:57:37.038Z,21.47
2019-05-25T05:00:06.491Z,21.20
2019-05-25T05:02:36.218Z,21.03
2019-05-25T05:05:07.256Z,19.93
2019-05-25T05:07:36.642Z,19.20
2019-05-25T05:10:06.958Z,19.72
2019-05-25T05:12:38.516Z,18.87
2019-05-25T05:15:08.314Z,16.25
2019-05-25T05:17:38.345Z,17.00
2019-05-25T05:20:08.129Z,15.85
2019-05-25T05:22:36.941Z,15.95
2019-05-25T05:25:06.893Z,14.98
2019-05-25T05:27:36.147Z,14.67
2019-05-25T05:30:08.409Z,14.96
2019-05-25T05:32:38.438Z,13.65
2019-05-25T05:35:08.855Z,14.18
2019-05-25T05:37:37.921Z,13.93
2019-05-25T05:40:07.462Z,12.85
2019-05-25T05:42:38.088Z,13.05
2019-05-25T05:45:07.286Z,11.97
2019-05-25T05:47:37.441Z,12.28
2019-05-25T05:50:09.875Z,12.80
2019-05-25T05:52:39.096Z,12.10
2019-05-25T05:55:08.852Z,12.10
2019-05-25T05:57:38.918Z,12.05
2019-05-25T06:00:10.070Z,12.20
2019-05-25T06:02:40.468Z,11.80
2019-05-25T06:05:10.375Z,12.13
2019-05-25T06:07:39.577Z,12.50
2019-05-25T06:10:08.369Z,11.73
2019-05-25T06:12:38.930Z,12.15
2019-05-25T06:15:07.677Z,12.27
2019-05-25T06:17:38.226Z,12.30
2019-05-25T06:20:09.434Z,12.40
2019-05-25T06:22:38.335Z,13.03
2019-05-25T06:25:07.740Z,13.15
2019-05-25T06:27:38.080Z,12.78
2019-05-25T06:30:08.187Z,12.30
2019-05-25T06:32:39.055Z,11.95
2019-05-25T06:35:08.980Z,12.13
2019-05-25T06:37:39.065Z,12.18
2019-05-25T06:40:08.682Z,12.13
2019-05-25T06:42:39.612Z,11.90
2019-05-25T06:45:08.890Z,11.40
2019-05-25T06:47:37.707Z,11.93
2019-05-25T06:50:07.695Z,11.35
2019-05-25T06:52:38.123Z,9.73
2019-05-25T06:55:07.128Z,11.12
2019-05-25T06:57:43.668Z,10.30
2019-05-25T07:00:10.132Z,10.45
2019-05-25T07:02:39.429Z,10.98
2019-05-25T07:05:09.536Z,10.30
2019-05-25T07:07:39.051Z,10.28
2019-05-25T07:10:08.281Z,9.95
2019-05-25T07:12:38.869Z,9.88
2019-05-25T07:15:08.880Z,9.73
2019-05-25T07:17:38.073Z,9.68
2019-05-25T07:20:07.904Z,9.30
2019-05-25T07:22:36.664Z,9.23
2019-05-25T07:25:06.679Z,8.35
2019-05-25T07:27:36.417Z,8.33
2019-05-25T07:30:07.209Z,7.58
2019-05-25T07:32:36.336Z,7.75
2019-05-25T07:35:07.353Z,7.52
2019-05-25T07:37:36.509Z,7.67
2019-05-25T07:40:07.616Z,7.66
2019-05-25T07:42:37.738Z,8.18
2019-05-25T07:45:08.137Z,7.22
2019-05-25T07:47:37.129Z,6.90
2019-05-25T07:50:06.833Z,6.90
2019-05-25T07:52:38.291Z,7.40
2019-05-25T07:55:07.504Z,7.47
2019-05-25T07:57:36.674Z,6.83
2019-05-25T08:00:07.002Z,7.72
2019-05-25T08:02:37.830Z,7.27
2019-05-25T08:05:08.081Z,8.33
2019-05-25T08:07:38.298Z,7.45
2019-05-25T08:10:07.386Z,8.15
2019-05-25T08:12:37.081Z,8.38
2019-05-25T08:15:07.079Z,8.68
2019-05-25T08:17:35.710Z,8.18
2019-05-25T08:20:06.444Z,8.62
2019-05-25T08:22:35.225Z,8.80
2019-05-25T08:25:06.666Z,9.03
2019-05-25T08:27:36.172Z,9.43
2019-05-25T08:30:08.015Z,8.98
2019-05-25T08:32:37.317Z,9.83
2019-05-25T08:35:07.227Z,9.45
2019-05-25T08:37:35.998Z,9.00
2019-05-25T08:40:06.946Z,9.24
2019-05-25T08:42:37.902Z,8.83
2019-05-25T08:45:07.492Z,9.08
2019-05-25T08:47:37.610Z,8.98
2019-05-25T08:50:08.084Z,8.50
2019-05-25T08:52:38.444Z,9.87
2019-05-25T08:55:08.530Z,10.00
2019-05-25T08:57:41.870Z,9.93
2019-05-25T09:00:12.072Z,9.70
2019-05-25T09:02:40.891Z,10.35
2019-05-25T09:05:11.664Z,9.57
2019-05-25T09:07:40.958Z,9.33
2019-05-25T09:10:10.175Z,9.50
2019-05-25T09:12:40.341Z,9.83
2019-05-25T09:15:09.546Z,10.03
2019-05-25T09:17:38.103Z,9.30
2019-05-25T09:20:07.497Z,8.93
2019-05-25T09:22:39.158Z,8.50
2019-05-25T09:25:08.396Z,8.63
2019-05-25T09:27:38.796Z,8.08
2019-05-25T09:30:08.293Z,7.50
2019-05-25T09:32:37.169Z,7.78
2019-05-25T09:35:07.387Z,7.35
2019-05-25T09:37:37.945Z,7.20
2019-05-25T09:40:08.352Z,7.05
2019-05-25T09:42:37.724Z,7.43
2019-05-25T09:45:07.041Z,6.92
2019-05-25T09:47:36.441Z,7.10
2019-05-25T09:50:06.235Z,6.87
2019-05-25T09:52:37.112Z,6.17
2019-05-25T09:55:08.367Z,5.92
2019-05-25T09:57:37.182Z,6.65
2019-05-25T10:00:08.804Z,6.92
2019-05-25T10:02:38.597Z,6.20
2019-05-25T10:05:09.548Z,6.62
2019-05-25T10:07:38.459Z,6.85
2019-05-25T10:10:07.531Z,7.17
2019-05-25T10:12:37.443Z,6.37
2019-05-25T10:15:07.448Z,7.03
2019-05-25T10:17:39.389Z,6.97
2019-05-25T10:20:08.807Z,7.20
2019-05-25T10:22:37.915Z,6.43
2019-05-25T10:25:09.034Z,6.25
2019-05-25T10:27:41.024Z,7.47
2019-05-25T10:30:10.930Z,6.00
2019-05-25T10:32:39.489Z,6.87
2019-05-25T10:35:09.054Z,6.55
2019-05-25T10:37:37.990Z,6.00
2019-05-25T10:40:07.488Z,5.80
2019-05-25T10:42:37.741Z,6.70
2019-05-25T10:45:08.481Z,6.58
2019-05-25T10:47:38.971Z,5.42
2019-05-25T10:50:08.811Z,6.40
2019-05-25T10:52:38.908Z,6.30
2019-05-25T10:55:08.105Z,6.37
2019-05-25T10:57:38.328Z,5.65
2019-05-25T11:00:08.289Z,6.30
2019-05-25T11:02:37.942Z,6.70
2019-05-25T11:05:08.258Z,6.53
2019-05-25T11:07:38.627Z,6.42
2019-05-25T11:10:08.275Z,5.97
2019-05-25T11:12:37.186Z,6.58
2019-05-25T11:15:08.119Z,5.83
2019-05-25T11:17:39.379Z,6.62
2019-05-25T11:20:08.387Z,5.75
2019-05-25T11:22:38.279Z,5.93
2019-05-25T11:25:08.428Z,5.80
2019-05-25T11:27:37.070Z,5.10
2019-05-25T11:30:09.342Z,4.97
2019-05-25T11:32:37.926Z,4.62
2019-05-25T11:35:07.133Z,4.00
2019-05-25T11:37:40.482Z,4.35
2019-05-25T11:40:09.546Z,4.60
2019-05-25T11:42:38.520Z,4.47
2019-05-25T11:45:07.295Z,4.80
2019-05-25T11:47:36.819Z,3.58
2019-05-25T11:50:09.270Z,3.75
2019-05-25T11:52:39.319Z,3.60
2019-05-25T11:55:08.499Z,3.70
2019-05-25T11:57:38.721Z,2.83
2019-05-25T12:00:23.588Z,3.35
2019-05-25T12:02:39.955Z,3.42
2019-05-25T12:05:28.382Z,3.20
2019-05-25T12:07:57.545Z,3.12
2019-05-25T12:10:26.309Z,2.90
2019-05-25T12:12:54.787Z,2.70
2019-05-25T12:15:23.345Z,2.80
2019-05-25T12:17:51.930Z,3.90
2019-05-25T12:20:20.723Z,3.30
2019-05-25T12:22:51.678Z,3.75
2019-05-25T12:25:20.677Z,11.10
2019-05-25T12:27:49.779Z,3.77
2019-05-25T12:30:20.099Z,2.90
2019-05-25T12:32:48.807Z,4.50
2019-05-25T12:35:18.459Z,5.75
2019-05-25T12:37:47.365Z,2.77
2019-05-25T12:40:16.329Z,2.93
2019-05-25T12:42:45.958Z,3.47
2019-05-25T12:45:14.926Z,3.20
2019-05-25T12:47:43.513Z,3.30
2019-05-25T12:50:12.760Z,3.20
2019-05-25T12:52:41.599Z,4.57
2019-05-25T12:55:10.617Z,3.60
2019-05-25T12:57:39.174Z,3.83
2019-05-25T13:00:16.130Z,3.93
2019-05-25T13:02:40.361Z,4.10
2019-05-25T13:05:10.047Z,3.87
2019-05-25T13:07:38.730Z,4.05
2019-05-25T13:10:07.634Z,4.30
2019-05-25T13:12:38.681Z,3.70
2019-05-25T13:15:09.519Z,3.40
2019-05-25T13:17:38.523Z,2.95
2019-05-25T13:20:07.624Z,3.83
2019-05-25T13:22:39.256Z,3.77
2019-05-25T13:25:07.823Z,3.50
2019-05-25T13:27:36.704Z,2.90
2019-05-25T13:30:06.714Z,2.50
2019-05-25T13:32:36.661Z,2.50
2019-05-25T13:35:09.516Z,2.60
2019-05-25T13:37:38.203Z,2.50
2019-05-25T13:40:08.079Z,2.40
2019-05-25T13:42:38.123Z,2.27
2019-05-25T13:45:07.762Z,2.22
2019-05-25T13:47:37.853Z,2.27
2019-05-25T13:50:10.053Z,2.30
2019-05-25T13:52:38.603Z,3.20
2019-05-25T13:55:07.592Z,2.57
2019-05-25T13:57:36.300Z,2.87
2019-05-25T14:00:07.521Z,3.00
2019-05-25T14:02:39.181Z,3.67
2019-05-25T14:05:07.757Z,3.40
2019-05-25T14:07:37.877Z,3.00
2019-05-25T14:10:08.199Z,3.10
2019-05-25T14:12:39.236Z,3.08
2019-05-25T14:15:08.225Z,2.80
2019-05-25T14:17:37.408Z,5.37
2019-05-25T14:20:06.626Z,4.22
2019-05-25T14:25:21.431Z,4.80
2019-05-25T14:27:59.740Z,4.90
2019-05-25T14:30:33.251Z,6.10
2019-05-25T14:38:20.306Z,6.65
2019-05-25T14:40:52.771Z,5.70
2019-05-25T14:48:45.390Z,5.85
2019-05-25T14:51:22.827Z,6.20
2019-05-25T14:53:57.933Z,5.10
2019-05-25T14:56:30.158Z,5.53
2019-05-25T14:59:08.651Z,5.60
2019-05-25T15:01:41.419Z,5.25
2019-05-25T15:04:13.870Z,4.83
2019-05-25T15:06:47.181Z,5.20
2019-05-25T15:09:17.322Z,4.58
2019-05-25T15:11:46.497Z,4.62
2019-05-25T15:14:15.053Z,4.67
2019-05-25T15:16:43.751Z,4.70
2019-05-25T15:19:12.556Z,4.97
2019-05-25T15:21:41.359Z,5.33
2019-05-25T15:24:10.338Z,6.72
2019-05-25T15:26:39.197Z,5.27
2019-05-25T15:29:11.200Z,6.50
2019-05-25T15:31:38.559Z,4.95
2019-05-25T15:34:07.420Z,4.50
2019-05-25T15:36:36.207Z,5.65
2019-05-25T15:39:07.658Z,6.44
2019-05-25T15:41:36.942Z,5.85
2019-05-25T15:44:07.073Z,5.02
2019-05-25T15:46:37.510Z,4.78
2019-05-25T15:49:06.055Z,4.10
2019-05-25T15:51:35.382Z,4.65
2019-05-25T15:54:09.776Z,5.27
2019-05-25T15:56:36.140Z,5.67
2019-05-25T15:59:06.322Z,5.42
2019-05-25T16:01:35.809Z,5.95
2019-05-25T16:04:05.841Z,5.90
2019-05-25T16:06:35.579Z,5.58
2019-05-25T16:09:06.820Z,5.20
2019-05-25T16:11:37.356Z,4.90
2019-05-25T16:14:10.009Z,5.55
2019-05-25T16:16:42.392Z,5.78
2019-05-25T16:21:51.498Z,5.50
2019-05-25T16:27:03.385Z,5.78
2019-05-25T16:29:37.086Z,5.28
2019-05-25T16:32:09.764Z,5.87
2019-05-25T16:34:45.895Z,5.60
2019-05-25T16:37:17.599Z,5.35
2019-05-25T16:39:51.730Z,5.83
2019-05-25T16:42:23.751Z,6.17
2019-05-25T16:44:55.709Z,5.72
2019-05-25T16:47:28.562Z,5.27
2019-05-25T16:50:01.607Z,5.55
2019-05-25T16:52:33.926Z,4.97
2019-05-25T16:55:07.907Z,6.23
2019-05-25T16:57:40.926Z,5.03
2019-05-25T17:02:51.211Z,4.78
2019-05-25T17:05:25.692Z,4.40
2019-05-25T17:07:59.256Z,4.50
2019-05-25T17:10:31.918Z,5.00
2019-05-25T17:18:12.895Z,4.30
2019-05-25T17:20:45.919Z,4.07
2019-05-25T17:23:17.923Z,4.50
2019-05-25T17:28:28.927Z,4.60
2019-05-25T17:30:58.400Z,4.40
2019-05-25T17:33:42.611Z,8.23
2019-05-25T17:35:57.623Z,4.67
2019-05-25T17:38:26.425Z,6.10
2019-05-25T17:40:54.990Z,4.30
2019-05-25T17:43:24.308Z,3.93
2019-05-25T17:45:53.378Z,4.15
2019-05-25T17:48:22.199Z,3.77
2019-05-25T17:50:50.745Z,4.03
2019-05-25T17:53:19.646Z,4.37
2019-05-25T17:55:48.550Z,4.17
2019-05-25T17:58:17.317Z,4.43
2019-05-25T18:00:47.838Z,4.33
2019-05-25T18:03:18.495Z,4.60
2019-05-25T18:05:51.437Z,5.62
2019-05-25T18:08:28.379Z,4.35
2019-05-25T18:13:39.877Z,5.03
2019-05-25T18:16:12.443Z,5.00
2019-05-25T18:21:21.617Z,5.00
2019-05-25T18:23:53.742Z,4.50
2019-05-25T18:26:26.212Z,4.70
2019-05-25T18:28:55.720Z,4.60
2019-05-25T18:44:57.846Z,5.15
2019-05-25T18:47:31.383Z,4.92
2019-05-25T18:52:45.271Z,5.40
2019-05-25T18:55:17.850Z,5.03
2019-05-25T18:57:53.383Z,5.87
2019-05-25T19:00:25.688Z,5.50
2019-05-25T19:02:55.398Z,5.63
2019-05-25T19:05:24.085Z,6.07
2019-05-25T19:10:33.643Z,8.13
2019-05-25T19:13:06.768Z,6.65
2019-05-25T19:15:39.649Z,5.83
2019-05-25T19:18:12.386Z,6.40
2019-05-25T19:20:41.998Z,6.63
2019-05-25T19:23:10.882Z,5.80
2019-05-25T19:25:40.794Z,5.60
2019-05-25T19:28:11.531Z,6.50
2019-05-25T19:30:40.623Z,5.60
2019-05-25T19:33:09.520Z,6.14
2019-05-25T19:35:38.613Z,6.07
2019-05-25T19:38:07.450Z,6.35
2019-05-25T19:40:40.479Z,5.15
2019-05-25T19:43:09.985Z,6.05
2019-05-25T19:45:38.804Z,6.55
2019-05-25T19:48:08.583Z,6.37
2019-05-25T19:50:39.009Z,7.30
2019-05-25T19:53:08.434Z,7.75
2019-05-25T19:55:38.802Z,7.62
2019-05-25T19:58:07.683Z,9.08
2019-05-25T20:00:40.048Z,9.33
2019-05-25T20:03:08.802Z,8.15
2019-05-25T20:05:37.382Z,8.78
2019-05-25T20:08:06.889Z,9.10
2019-05-25T20:10:37.709Z,10.18
2019-05-25T20:13:06.805Z,10.15
2019-05-25T20:15:35.754Z,10.05
2019-05-25T20:18:06.542Z,10.52
2019-05-25T20:20:36.272Z,10.28
2019-05-25T20:23:09.476Z,11.18
2019-05-25T20:25:38.310Z,10.73
2019-05-25T20:28:08.272Z,9.50
2019-05-25T20:30:38.361Z,9.83
2019-05-25T20:33:07.568Z,10.03
2019-05-25T20:35:37.661Z,10.35
2019-05-25T20:38:07.596Z,10.20
2019-05-25T20:40:36.869Z,10.55
2019-05-25T20:43:08.571Z,10.63
2019-05-25T20:45:37.023Z,10.50
2019-05-25T20:48:05.891Z,10.48
2019-05-25T20:50:34.801Z,11.40
2019-05-25T20:53:03.779Z,11.35
2019-05-25T20:55:32.350Z,11.88
2019-05-25T20:58:01.480Z,10.98
2019-05-25T21:00:30.346Z,11.77
2019-05-25T21:03:06.062Z,11.67
2019-05-25T21:05:30.799Z,11.57
2019-05-25T21:07:59.483Z,12.13
2019-05-25T21:10:28.345Z,13.05
2019-05-25T21:12:57.453Z,12.75
2019-05-25T21:15:26.560Z,12.05
2019-05-25T21:17:57.429Z,12.40
2019-05-25T21:20:28.212Z,12.95
2019-05-25T21:22:56.801Z,11.80
2019-05-25T21:25:25.476Z,12.60
2019-05-25T21:27:54.901Z,12.50
2019-05-25T21:30:23.474Z,12.90
2019-05-25T21:32:52.039Z,14.23
2019-05-25T21:35:20.947Z,12.58
2019-05-25T21:37:49.827Z,13.35
2019-05-25T21:40:18.914Z,13.28
2019-05-25T21:42:48.028Z,14.77
2019-05-25T21:45:19.246Z,13.73
2019-05-25T21:47:48.244Z,14.50
2019-05-25T21:50:17.773Z,14.10
2019-05-25T21:52:46.550Z,14.05
2019-05-25T21:55:16.691Z,13.60
2019-05-25T21:57:45.854Z,14.28
2019-05-25T22:00:17.119Z,13.90
2019-05-25T22:02:48.306Z,14.83
2019-05-25T22:05:17.642Z,14.40
2019-05-25T22:07:46.220Z,14.13
2019-05-25T22:10:15.108Z,14.75
2019-05-25T22:12:44.239Z,14.10
2019-05-25T22:15:13.147Z,14.80
2019-05-25T22:17:41.977Z,14.40
2019-05-25T22:20:12.441Z,15.03
2019-05-25T22:22:42.198Z,14.68
2019-05-25T22:25:10.801Z,15.07
2019-05-25T22:27:39.404Z,15.25
2019-05-25T22:30:08.063Z,14.78
2019-05-25T22:32:38.494Z,15.20
2019-05-25T22:35:07.412Z,14.98
2019-05-25T22:37:36.288Z,15.32
2019-05-25T22:40:07.508Z,15.34
2019-05-25T22:42:38.172Z,14.25
2019-05-25T22:45:07.971Z,14.95
2019-05-25T22:47:39.608Z,15.55
2019-05-25T22:50:09.098Z,14.73
2019-05-25T22:52:38.307Z,15.38
2019-05-25T22:55:06.911Z,13.20
2019-05-25T22:57:35.473Z,14.23
2019-05-25T23:00:08.648Z,14.95
2019-05-25T23:02:39.931Z,14.27
2019-05-25T23:05:09.237Z,13.83
2019-05-25T23:07:38.188Z,13.85
2019-05-25T23:10:08.144Z,14.20
2019-05-25T23:12:37.205Z,14.33
2019-05-25T23:15:07.297Z,13.45
2019-05-25T23:17:36.648Z,14.50
2019-05-25T23:20:07.762Z,14.30
2019-05-25T23:22:37.599Z,13.20
2019-05-25T23:25:07.146Z,14.18
2019-05-25T23:27:35.924Z,13.08
2019-05-25T23:30:07.009Z,13.34
2019-05-25T23:32:36.189Z,12.93
2019-05-25T23:35:06.734Z,13.42
2019-05-25T23:37:36.064Z,13.90
2019-05-25T23:40:07.277Z,13.86
2019-05-25T23:42:36.841Z,13.33
2019-05-25T23:45:08.132Z,12.98
2019-05-25T23:47:38.881Z,12.80
2019-05-25T23:50:07.748Z,12.98
2019-05-25T23:52:39.298Z,12.75
2019-05-25T23:55:08.290Z,12.60
2019-05-25T23:57:39.552Z,12.37
